sensor_id;sensor_type;location;lat;lon;timestamp;pressure;altitude;pressure_sealevel;temperature;humidity
19884;BME280;10104;50.732;10.174;2022-07-01T00:01:04;97501.53;;;22.19;73.82
19884;BME280;10104;50.732;10.174;2022-07-01T00:03:26;97495.06;;;22.20;73.86
19884;BME280;10104;50.732;10.174;2022-07-01T00:05:47;97495.34;;;22.08;73.96
19884;BME280;10104;50.732;10.174;2022-07-01T00:08:09;97496.69;;;22.11;73.75
19884;BME280;10104;50.732;10.174;2022-07-01T00:10:30;97499.13;;;22.12;73.61
19884;BME280;10104;50.732;10.174;2022-07-01T00:12:52;97500.41;;;22.35;72.00
19884;BME280;10104;50.732;10.174;2022-07-01T00:15:13;97495.31;;;22.34;72.05
19884;BME280;10104;50.732;10.174;2022-07-01T00:17:35;97495.31;;;22.39;71.73
19884;BME280;10104;50.732;10.174;2022-07-01T00:19:57;97500.13;;;22.52;70.79
19884;BME280;10104;50.732;10.174;2022-07-01T00:22:18;97498.78;;;22.49;70.52
19884;BME280;10104;50.732;10.174;2022-07-01T00:24:40;97509.31;;;22.41;70.62
19884;BME280;10104;50.732;10.174;2022-07-01T00:27:01;97502.53;;;22.58;69.34
19884;BME280;10104;50.732;10.174;2022-07-01T00:29:22;97508.75;;;22.54;69.62
19884;BME280;10104;50.732;10.174;2022-07-01T00:31:44;97509.28;;;22.56;68.96
19884;BME280;10104;50.732;10.174;2022-07-01T00:34:05;97513.59;;;22.62;68.33
19884;BME280;10104;50.732;10.174;2022-07-01T00:36:27;97509.53;;;22.70;68.52
19884;BME280;10104;50.732;10.174;2022-07-01T00:38:51;97515.72;;;22.70;68.18
19884;BME280;10104;50.732;10.174;2022-07-01T00:41:12;97531.94;;;22.60;68.43
19884;BME280;10104;50.732;10.174;2022-07-01T00:43:35;97540.09;;;22.45;69.85
19884;BME280;10104;50.732;10.174;2022-07-01T00:46:14;97549.78;;;22.41;69.88
19884;BME280;10104;50.732;10.174;2022-07-01T00:48:42;97543.31;;;22.47;69.27
19884;BME280;10104;50.732;10.174;2022-07-01T00:51:04;97544.38;;;22.51;67.89
19884;BME280;10104;50.732;10.174;2022-07-01T00:53:27;97546.56;;;22.39;68.49
19884;BME280;10104;50.732;10.174;2022-07-01T00:55:48;97551.91;;;22.59;67.05
19884;BME280;10104;50.732;10.174;2022-07-01T00:58:10;97557.31;;;22.54;67.03
19884;BME280;10104;50.732;10.174;2022-07-01T01:00:32;97563.56;;;22.49;67.08
19884;BME280;10104;50.732;10.174;2022-07-01T01:02:54;97569.75;;;22.35;67.43
19884;BME280;10104;50.732;10.174;2022-07-01T01:05:17;97568.69;;;22.10;68.29
19884;BME280;10104;50.732;10.174;2022-07-01T01:07:46;97574.09;;;21.95;68.84
19884;BME280;10104;50.732;10.174;2022-07-01T01:10:09;97567.38;;;22.03;68.12
19884;BME280;10104;50.732;10.174;2022-07-01T01:12:31;97575.41;;;21.93;68.57
19884;BME280;10104;50.732;10.174;2022-07-01T01:14:54;97582.72;;;21.97;68.16
19884;BME280;10104;50.732;10.174;2022-07-01T01:17:17;97595.09;;;21.78;69.04
19884;BME280;10104;50.732;10.174;2022-07-01T01:19:39;97605.31;;;21.66;70.15
19884;BME280;10104;50.732;10.174;2022-07-01T01:22:01;97620.03;;;21.38;71.77
19884;BME280;10104;50.732;10.174;2022-07-01T01:24:22;97626.75;;;21.35;72.01
19884;BME280;10104;50.732;10.174;2022-07-01T01:26:44;97639.41;;;21.35;72.28
19884;BME280;10104;50.732;10.174;2022-07-01T01:29:05;97647.16;;;21.21;73.40
19884;BME280;10104;50.732;10.174;2022-07-01T01:31:30;97658.13;;;21.10;73.89
19884;BME280;10104;50.732;10.174;2022-07-01T01:33:51;97661.25;;;20.91;74.22
19884;BME280;10104;50.732;10.174;2022-07-01T01:36:13;97658.69;;;20.75;75.23
19884;BME280;10104;50.732;10.174;2022-07-01T01:38:35;97658.88;;;20.63;75.34
19884;BME280;10104;50.732;10.174;2022-07-01T01:40:57;97667.91;;;20.47;76.25
19884;BME280;10104;50.732;10.174;2022-07-01T01:43:18;97676.66;;;20.32;77.97
19884;BME280;10104;50.732;10.174;2022-07-01T01:45:40;97684.84;;;20.20;78.14
19884;BME280;10104;50.732;10.174;2022-07-01T01:48:02;97691.50;;;20.13;77.76
19884;BME280;10104;50.732;10.174;2022-07-01T01:50:23;97685.31;;;20.12;78.15
19884;BME280;10104;50.732;10.174;2022-07-01T01:52:45;97689.81;;;20.07;77.89
19884;BME280;10104;50.732;10.174;2022-07-01T01:55:07;97690.50;;;19.92;78.22
19884;BME280;10104;50.732;10.174;2022-07-01T01:57:28;97681.06;;;19.90;78.43
19884;BME280;10104;50.732;10.174;2022-07-01T01:59:50;97681.97;;;19.73;78.24
19884;BME280;10104;50.732;10.174;2022-07-01T02:02:12;97674.72;;;19.52;79.00
19884;BME280;10104;50.732;10.174;2022-07-01T02:04:33;97674.50;;;19.37;79.62
19884;BME280;10104;50.732;10.174;2022-07-01T02:06:55;97667.13;;;19.27;79.83
19884;BME280;10104;50.732;10.174;2022-07-01T02:09:17;97660.00;;;19.16;79.78
19884;BME280;10104;50.732;10.174;2022-07-01T02:11:38;97664.97;;;19.08;80.04
19884;BME280;10104;50.732;10.174;2022-07-01T02:14:00;97676.41;;;18.98;80.81
19884;BME280;10104;50.732;10.174;2022-07-01T02:16:21;97678.13;;;18.87;81.26
19884;BME280;10104;50.732;10.174;2022-07-01T02:18:43;97683.97;;;18.84;80.81
19884;BME280;10104;50.732;10.174;2022-07-01T02:21:05;97692.84;;;18.68;81.23
19884;BME280;10104;50.732;10.174;2022-07-01T02:23:31;97689.28;;;18.63;81.22
19884;BME280;10104;50.732;10.174;2022-07-01T02:25:52;97706.44;;;18.62;81.03
19884;BME280;10104;50.732;10.174;2022-07-01T02:28:14;97715.88;;;18.52;81.12
19884;BME280;10104;50.732;10.174;2022-07-01T02:30:35;97717.00;;;18.40;81.67
19884;BME280;10104;50.732;10.174;2022-07-01T02:32:57;97725.63;;;18.42;81.21
19884;BME280;10104;50.732;10.174;2022-07-01T02:35:19;97730.84;;;18.32;81.75
19884;BME280;10104;50.732;10.174;2022-07-01T02:37:41;97736.91;;;18.27;82.06
19884;BME280;10104;50.732;10.174;2022-07-01T02:40:02;97731.06;;;18.30;81.83
19884;BME280;10104;50.732;10.174;2022-07-01T02:42:24;97728.38;;;18.30;81.86
19884;BME280;10104;50.732;10.174;2022-07-01T02:44:48;97730.56;;;18.33;81.73
19884;BME280;10104;50.732;10.174;2022-07-01T02:47:10;97723.75;;;18.26;82.09
19884;BME280;10104;50.732;10.174;2022-07-01T02:49:32;97725.94;;;18.29;81.75
19884;BME280;10104;50.732;10.174;2022-07-01T02:51:53;97729.28;;;18.36;81.32
19884;BME280;10104;50.732;10.174;2022-07-01T02:54:15;97734.19;;;18.39;80.91
19884;BME280;10104;50.732;10.174;2022-07-01T02:56:37;97738.38;;;18.35;81.13
19884;BME280;10104;50.732;10.174;2022-07-01T02:58:59;97724.56;;;18.26;81.02
19884;BME280;10104;50.732;10.174;2022-07-01T03:01:20;97724.13;;;18.17;81.55
19884;BME280;10104;50.732;10.174;2022-07-01T03:03:42;97699.63;;;18.26;81.33
19884;BME280;10104;50.732;10.174;2022-07-01T03:06:03;97702.38;;;18.31;81.19
19884;BME280;10104;50.732;10.174;2022-07-01T03:08:25;97700.53;;;18.31;81.08
19884;BME280;10104;50.732;10.174;2022-07-01T03:10:46;97708.47;;;18.26;81.04
19884;BME280;10104;50.732;10.174;2022-07-01T03:13:07;97709.78;;;18.24;81.46
19884;BME280;10104;50.732;10.174;2022-07-01T03:15:29;97717.91;;;18.29;81.17
19884;BME280;10104;50.732;10.174;2022-07-01T03:17:50;97715.44;;;18.27;81.33
19884;BME280;10104;50.732;10.174;2022-07-01T03:20:14;97716.75;;;18.25;81.34
19884;BME280;10104;50.732;10.174;2022-07-01T03:22:37;97729.34;;;18.24;82.17
19884;BME280;10104;50.732;10.174;2022-07-01T03:24:58;97733.72;;;18.13;81.87
19884;BME280;10104;50.732;10.174;2022-07-01T03:27:21;97749.66;;;18.20;81.73
19884;BME280;10104;50.732;10.174;2022-07-01T03:29:43;97747.22;;;18.18;81.96
19884;BME280;10104;50.732;10.174;2022-07-01T03:32:05;97747.53;;;18.22;81.80
19884;BME280;10104;50.732;10.174;2022-07-01T03:34:27;97741.34;;;18.22;81.51
19884;BME280;10104;50.732;10.174;2022-07-01T03:36:48;97737.38;;;18.24;81.13
19884;BME280;10104;50.732;10.174;2022-07-01T03:39:10;97742.84;;;18.29;81.20
19884;BME280;10104;50.732;10.174;2022-07-01T03:41:31;97747.28;;;18.24;81.09
19884;BME280;10104;50.732;10.174;2022-07-01T03:43:53;97747.06;;;18.25;81.13
19884;BME280;10104;50.732;10.174;2022-07-01T03:46:14;97758.50;;;18.21;81.08
19884;BME280;10104;50.732;10.174;2022-07-01T03:48:36;97746.84;;;18.15;81.44
19884;BME280;10104;50.732;10.174;2022-07-01T03:51:02;97763.66;;;18.10;81.80
19884;BME280;10104;50.732;10.174;2022-07-01T03:53:23;97764.34;;;18.17;81.85
19884;BME280;10104;50.732;10.174;2022-07-01T03:56:03;97771.03;;;18.32;80.99
19884;BME280;10104;50.732;10.174;2022-07-01T03:58:25;97778.75;;;18.28;80.97
19884;BME280;10104;50.732;10.174;2022-07-01T04:00:46;97774.28;;;18.34;80.54
19884;BME280;10104;50.732;10.174;2022-07-01T04:03:09;97765.34;;;18.28;80.51
19884;BME280;10104;50.732;10.174;2022-07-01T04:05:33;97771.50;;;18.29;80.61
19884;BME280;10104;50.732;10.174;2022-07-01T04:07:55;97776.50;;;18.37;80.47
19884;BME280;10104;50.732;10.174;2022-07-01T04:10:17;97789.31;;;18.35;80.23
19884;BME280;10104;50.732;10.174;2022-07-01T04:12:39;97781.03;;;18.36;79.90
19884;BME280;10104;50.732;10.174;2022-07-01T04:15:00;97782.22;;;18.29;80.61
19884;BME280;10104;50.732;10.174;2022-07-01T04:17:23;97775.25;;;18.28;80.90
19884;BME280;10104;50.732;10.174;2022-07-01T04:19:44;97783.28;;;18.28;80.66
19884;BME280;10104;50.732;10.174;2022-07-01T04:22:06;97795.19;;;18.32;80.67
19884;BME280;10104;50.732;10.174;2022-07-01T04:24:46;97787.81;;;18.27;80.95
19884;BME280;10104;50.732;10.174;2022-07-01T04:27:07;97777.91;;;18.28;81.17
19884;BME280;10104;50.732;10.174;2022-07-01T04:29:29;97781.22;;;18.46;79.91
19884;BME280;10104;50.732;10.174;2022-07-01T04:31:50;97787.41;;;18.47;80.49
19884;BME280;10104;50.732;10.174;2022-07-01T04:34:12;97802.44;;;18.48;79.78
19884;BME280;10104;50.732;10.174;2022-07-01T04:36:34;97797.72;;;18.38;80.88
19884;BME280;10104;50.732;10.174;2022-07-01T04:38:56;97796.22;;;18.31;82.36
19884;BME280;10104;50.732;10.174;2022-07-01T04:41:18;97795.72;;;18.34;82.13
19884;BME280;10104;50.732;10.174;2022-07-01T04:43:58;97785.97;;;18.28;83.19
19884;BME280;10104;50.732;10.174;2022-07-01T04:46:20;97792.19;;;18.16;85.04
19884;BME280;10104;50.732;10.174;2022-07-01T04:48:41;97788.22;;;18.19;84.59
19884;BME280;10104;50.732;10.174;2022-07-01T04:51:03;97782.16;;;18.24;84.58
19884;BME280;10104;50.732;10.174;2022-07-01T04:53:25;97785.56;;;18.19;85.24
19884;BME280;10104;50.732;10.174;2022-07-01T04:55:47;97790.41;;;18.22;86.46
19884;BME280;10104;50.732;10.174;2022-07-01T04:58:08;97795.09;;;18.15;86.40
19884;BME280;10104;50.732;10.174;2022-07-01T05:00:30;97788.38;;;18.12;87.13
19884;BME280;10104;50.732;10.174;2022-07-01T05:02:51;97791.06;;;18.12;86.84
19884;BME280;10104;50.732;10.174;2022-07-01T05:05:13;97795.59;;;18.12;87.63
19884;BME280;10104;50.732;10.174;2022-07-01T05:07:35;97784.88;;;18.12;87.19
19884;BME280;10104;50.732;10.174;2022-07-01T05:09:57;97791.00;;;17.96;88.39
19884;BME280;10104;50.732;10.174;2022-07-01T05:12:21;97781.91;;;17.85;90.35
19884;BME280;10104;50.732;10.174;2022-07-01T05:14:43;97786.31;;;17.91;89.96
19884;BME280;10104;50.732;10.174;2022-07-01T05:17:04;97797.63;;;17.93;89.91
19884;BME280;10104;50.732;10.174;2022-07-01T05:19:26;97797.63;;;17.93;91.05
19884;BME280;10104;50.732;10.174;2022-07-01T05:22:06;97810.69;;;17.78;91.62
19884;BME280;10104;50.732;10.174;2022-07-01T05:24:31;97810.38;;;17.74;91.92
19884;BME280;10104;50.732;10.174;2022-07-01T05:26:52;97827.13;;;17.58;93.18
19884;BME280;10104;50.732;10.174;2022-07-01T05:29:14;97821.69;;;17.65;93.64
19884;BME280;10104;50.732;10.174;2022-07-01T05:31:37;97825.75;;;17.67;93.32
19884;BME280;10104;50.732;10.174;2022-07-01T05:33:58;97823.63;;;17.58;94.09
19884;BME280;10104;50.732;10.174;2022-07-01T05:36:25;97827.94;;;17.59;93.75
19884;BME280;10104;50.732;10.174;2022-07-01T05:38:46;97820.25;;;17.51;94.54
19884;BME280;10104;50.732;10.174;2022-07-01T05:41:08;97822.13;;;17.38;95.05
19884;BME280;10104;50.732;10.174;2022-07-01T05:43:30;97813.88;;;17.40;95.37
19884;BME280;10104;50.732;10.174;2022-07-01T05:45:51;97817.34;;;17.40;95.58
19884;BME280;10104;50.732;10.174;2022-07-01T05:48:13;97823.06;;;17.44;95.41
19884;BME280;10104;50.732;10.174;2022-07-01T05:50:34;97827.94;;;17.35;96.35
19884;BME280;10104;50.732;10.174;2022-07-01T05:52:56;97841.31;;;17.47;96.29
19884;BME280;10104;50.732;10.174;2022-07-01T05:55:17;97855.19;;;17.56;96.20
19884;BME280;10104;50.732;10.174;2022-07-01T05:57:39;97861.69;;;17.60;96.49
19884;BME280;10104;50.732;10.174;2022-07-01T06:00:00;97866.22;;;17.59;95.81
19884;BME280;10104;50.732;10.174;2022-07-01T06:02:22;97871.38;;;17.72;95.16
19884;BME280;10104;50.732;10.174;2022-07-01T06:04:43;97881.28;;;17.72;95.92
19884;BME280;10104;50.732;10.174;2022-07-01T06:07:05;97878.72;;;17.65;96.11
19884;BME280;10104;50.732;10.174;2022-07-01T06:09:27;97891.31;;;17.65;95.79
19884;BME280;10104;50.732;10.174;2022-07-01T06:11:48;97889.78;;;17.69;96.03
19884;BME280;10104;50.732;10.174;2022-07-01T06:14:09;97896.78;;;17.70;95.72
19884;BME280;10104;50.732;10.174;2022-07-01T06:16:31;97900.72;;;17.67;96.27
19884;BME280;10104;50.732;10.174;2022-07-01T06:18:53;97901.66;;;17.73;94.77
19884;BME280;10104;50.732;10.174;2022-07-01T06:21:14;97904.00;;;17.69;94.65
19884;BME280;10104;50.732;10.174;2022-07-01T06:23:37;97910.06;;;17.65;94.96
19884;BME280;10104;50.732;10.174;2022-07-01T06:25:59;97905.97;;;17.62;94.56
19884;BME280;10104;50.732;10.174;2022-07-01T06:28:20;97916.81;;;17.67;94.97
19884;BME280;10104;50.732;10.174;2022-07-01T06:30:42;97921.13;;;17.68;93.81
19884;BME280;10104;50.732;10.174;2022-07-01T06:33:05;97921.13;;;17.68;94.29
19884;BME280;10104;50.732;10.174;2022-07-01T06:35:26;97920.88;;;17.70;93.72
19884;BME280;10104;50.732;10.174;2022-07-01T06:37:47;97910.50;;;17.62;94.25
19884;BME280;10104;50.732;10.174;2022-07-01T06:40:16;97905.38;;;17.60;92.82
19884;BME280;10104;50.732;10.174;2022-07-01T06:42:37;97914.50;;;17.71;92.44
19884;BME280;10104;50.732;10.174;2022-07-01T06:44:59;97903.19;;;17.69;92.54
19884;BME280;10104;50.732;10.174;2022-07-01T06:47:21;97912.38;;;17.73;93.47
19884;BME280;10104;50.732;10.174;2022-07-01T06:49:42;97913.53;;;17.65;93.98
19884;BME280;10104;50.732;10.174;2022-07-01T06:52:04;97905.88;;;17.69;94.39
19884;BME280;10104;50.732;10.174;2022-07-01T06:54:26;97913.19;;;17.73;93.06
19884;BME280;10104;50.732;10.174;2022-07-01T06:56:49;97919.03;;;17.82;93.16
19884;BME280;10104;50.732;10.174;2022-07-01T06:59:11;97921.94;;;17.81;91.33
19884;BME280;10104;50.732;10.174;2022-07-01T07:01:32;97928.34;;;17.79;90.61
19884;BME280;10104;50.732;10.174;2022-07-01T07:03:54;97938.81;;;17.93;91.39
19884;BME280;10104;50.732;10.174;2022-07-01T07:06:16;97936.94;;;17.93;90.69
19884;BME280;10104;50.732;10.174;2022-07-01T07:08:38;97938.59;;;17.83;90.42
19884;BME280;10104;50.732;10.174;2022-07-01T07:11:00;97936.84;;;17.88;90.85
19884;BME280;10104;50.732;10.174;2022-07-01T07:13:21;97945.69;;;17.89;91.59
19884;BME280;10104;50.732;10.174;2022-07-01T07:15:43;97941.28;;;17.83;91.07
19884;BME280;10104;50.732;10.174;2022-07-01T07:18:04;97948.94;;;17.79;91.77
19884;BME280;10104;50.732;10.174;2022-07-01T07:20:26;97936.16;;;17.81;90.86
19884;BME280;10104;50.732;10.174;2022-07-01T07:22:48;97944.19;;;17.81;90.67
19884;BME280;10104;50.732;10.174;2022-07-01T07:25:10;97952.56;;;17.73;90.82
19884;BME280;10104;50.732;10.174;2022-07-01T07:27:31;97936.59;;;17.66;90.65
19884;BME280;10104;50.732;10.174;2022-07-01T07:29:55;97944.88;;;17.65;90.81
19884;BME280;10104;50.732;10.174;2022-07-01T07:32:16;97947.03;;;17.56;92.19
19884;BME280;10104;50.732;10.174;2022-07-01T07:34:38;97940.78;;;17.62;91.65
19884;BME280;10104;50.732;10.174;2022-07-01T07:37:00;97950.91;;;17.72;90.00
19884;BME280;10104;50.732;10.174;2022-07-01T07:39:21;97954.97;;;17.51;91.86
19884;BME280;10104;50.732;10.174;2022-07-01T07:41:43;97951.50;;;17.74;90.99
19884;BME280;10104;50.732;10.174;2022-07-01T07:44:05;97963.38;;;17.78;90.09
19884;BME280;10104;50.732;10.174;2022-07-01T07:46:26;97956.31;;;17.84;90.66
19884;BME280;10104;50.732;10.174;2022-07-01T07:48:48;97960.84;;;17.95;89.98
19884;BME280;10104;50.732;10.174;2022-07-01T07:51:10;97953.63;;;17.95;89.20
19884;BME280;10104;50.732;10.174;2022-07-01T07:53:35;97953.84;;;17.94;88.33
19884;BME280;10104;50.732;10.174;2022-07-01T07:55:57;97957.56;;;17.93;88.85
19884;BME280;10104;50.732;10.174;2022-07-01T07:58:18;97951.88;;;17.89;88.16
19884;BME280;10104;50.732;10.174;2022-07-01T08:00:40;97962.81;;;17.88;85.38
19884;BME280;10104;50.732;10.174;2022-07-01T08:03:02;97962.00;;;17.87;85.31
19884;BME280;10104;50.732;10.174;2022-07-01T08:05:23;97975.50;;;17.81;84.67
19884;BME280;10104;50.732;10.174;2022-07-01T08:07:45;97980.41;;;17.84;85.37
19884;BME280;10104;50.732;10.174;2022-07-01T08:10:08;97973.06;;;17.79;85.11
19884;BME280;10104;50.732;10.174;2022-07-01T08:12:30;97974.69;;;17.80;85.65
19884;BME280;10104;50.732;10.174;2022-07-01T08:14:52;97971.09;;;17.98;85.94
19884;BME280;10104;50.732;10.174;2022-07-01T08:17:13;97984.72;;;18.08;84.13
19884;BME280;10104;50.732;10.174;2022-07-01T08:19:35;97989.50;;;18.06;84.10
19884;BME280;10104;50.732;10.174;2022-07-01T08:21:56;97990.91;;;18.20;84.33
19884;BME280;10104;50.732;10.174;2022-07-01T08:24:18;97986.09;;;18.34;83.40
19884;BME280;10104;50.732;10.174;2022-07-01T08:26:39;97987.59;;;18.41;83.67
19884;BME280;10104;50.732;10.174;2022-07-01T08:29:01;97993.97;;;18.52;82.97
19884;BME280;10104;50.732;10.174;2022-07-01T08:31:22;98000.06;;;18.59;79.37
19884;BME280;10104;50.732;10.174;2022-07-01T08:33:44;97996.94;;;18.50;79.08
19884;BME280;10104;50.732;10.174;2022-07-01T08:36:07;98008.81;;;18.54;78.26
19884;BME280;10104;50.732;10.174;2022-07-01T08:38:29;98028.53;;;18.60;76.35
19884;BME280;10104;50.732;10.174;2022-07-01T08:40:50;98026.78;;;18.42;77.52
19884;BME280;10104;50.732;10.174;2022-07-01T08:43:15;98020.38;;;18.43;77.64
19884;BME280;10104;50.732;10.174;2022-07-01T08:45:37;98030.97;;;18.50;78.72
19884;BME280;10104;50.732;10.174;2022-07-01T08:48:00;98041.59;;;18.45;79.67
19884;BME280;10104;50.732;10.174;2022-07-01T08:50:26;98044.94;;;18.52;78.93
19884;BME280;10104;50.732;10.174;2022-07-01T08:52:48;98048.34;;;18.59;78.02
19884;BME280;10104;50.732;10.174;2022-07-01T08:55:09;98057.81;;;18.62;77.87
19884;BME280;10104;50.732;10.174;2022-07-01T08:57:31;98066.41;;;18.52;75.08
19884;BME280;10104;50.732;10.174;2022-07-01T09:00:03;98072.47;;;18.47;76.23
19884;BME280;10104;50.732;10.174;2022-07-01T09:02:25;98080.28;;;18.26;77.45
19884;BME280;10104;50.732;10.174;2022-07-01T09:05:04;98083.19;;;18.24;78.26
19884;BME280;10104;50.732;10.174;2022-07-01T09:07:31;98074.34;;;18.35;76.62
19884;BME280;10104;50.732;10.174;2022-07-01T09:10:15;98075.16;;;18.36;77.60
19884;BME280;10104;50.732;10.174;2022-07-01T09:12:40;98068.63;;;18.32;76.57
19884;BME280;10104;50.732;10.174;2022-07-01T09:15:18;98065.38;;;18.30;75.71
19884;BME280;10104;50.732;10.174;2022-07-01T09:17:40;98060.59;;;18.20;77.94
19884;BME280;10104;50.732;10.174;2022-07-01T09:20:02;98048.13;;;18.26;74.38
19884;BME280;10104;50.732;10.174;2022-07-01T09:22:23;98050.81;;;18.14;75.75
19884;BME280;10104;50.732;10.174;2022-07-01T09:24:45;98065.13;;;18.08;75.77
19884;BME280;10104;50.732;10.174;2022-07-01T09:27:08;98067.81;;;18.19;75.26
19884;BME280;10104;50.732;10.174;2022-07-01T09:29:33;98061.16;;;18.22;76.21
19884;BME280;10104;50.732;10.174;2022-07-01T09:31:55;98064.22;;;18.26;77.30
19884;BME280;10104;50.732;10.174;2022-07-01T09:34:17;98057.53;;;18.40;77.23
19884;BME280;10104;50.732;10.174;2022-07-01T09:36:38;98059.28;;;18.46;78.12
19884;BME280;10104;50.732;10.174;2022-07-01T09:39:04;98050.00;;;18.60;72.62
19884;BME280;10104;50.732;10.174;2022-07-01T09:41:45;98049.53;;;18.63;76.48
19884;BME280;10104;50.732;10.174;2022-07-01T09:44:08;98044.00;;;18.81;74.17
19884;BME280;10104;50.732;10.174;2022-07-01T09:46:29;98049.22;;;18.99;73.27
19884;BME280;10104;50.732;10.174;2022-07-01T09:48:51;98045.00;;;19.04;72.88
19884;BME280;10104;50.732;10.174;2022-07-01T09:51:14;98036.44;;;19.18;73.70
19884;BME280;10104;50.732;10.174;2022-07-01T09:53:37;98041.84;;;19.35;73.67
19884;BME280;10104;50.732;10.174;2022-07-01T09:55:59;98046.47;;;19.51;74.99
19884;BME280;10104;50.732;10.174;2022-07-01T09:58:21;98040.47;;;19.61;71.00
19884;BME280;10104;50.732;10.174;2022-07-01T10:00:43;98049.81;;;19.58;74.38
19884;BME280;10104;50.732;10.174;2022-07-01T10:03:06;98052.84;;;19.62;73.25
19884;BME280;10104;50.732;10.174;2022-07-01T10:05:29;98046.84;;;19.43;73.74
19884;BME280;10104;50.732;10.174;2022-07-01T10:08:30;98053.03;;;19.44;72.65
19884;BME280;10104;50.732;10.174;2022-07-01T10:11:24;98062.75;;;19.33;73.91
19884;BME280;10104;50.732;10.174;2022-07-01T10:13:57;98077.72;;;19.29;77.01
19884;BME280;10104;50.732;10.174;2022-07-01T10:16:20;98069.78;;;19.22;77.87
19884;BME280;10104;50.732;10.174;2022-07-01T10:18:42;98071.06;;;19.20;77.28
19884;BME280;10104;50.732;10.174;2022-07-01T10:21:03;98065.97;;;19.18;76.17
19884;BME280;10104;50.732;10.174;2022-07-01T10:23:42;98071.47;;;19.12;74.66
19884;BME280;10104;50.732;10.174;2022-07-01T10:26:05;98084.81;;;19.07;75.13
19884;BME280;10104;50.732;10.174;2022-07-01T10:28:40;98102.97;;;19.16;77.65
19884;BME280;10104;50.732;10.174;2022-07-01T10:31:07;98103.88;;;19.22;77.20
19884;BME280;10104;50.732;10.174;2022-07-01T10:36:16;98104.28;;;19.42;78.23
19884;BME280;10104;50.732;10.174;2022-07-01T10:41:25;98116.53;;;19.78;76.49
19884;BME280;10104;50.732;10.174;2022-07-01T10:43:48;98121.63;;;20.08;75.01
19884;BME280;10104;50.732;10.174;2022-07-01T10:46:09;98126.41;;;20.34;74.17
19884;BME280;10104;50.732;10.174;2022-07-01T10:48:33;98128.66;;;20.26;71.20
19884;BME280;10104;50.732;10.174;2022-07-01T10:50:55;98128.41;;;20.27;73.78
19884;BME280;10104;50.732;10.174;2022-07-01T10:53:17;98133.72;;;20.22;71.52
19884;BME280;10104;50.732;10.174;2022-07-01T10:55:49;98135.97;;;20.13;70.98
19884;BME280;10104;50.732;10.174;2022-07-01T10:58:18;98128.06;;;20.07;71.48
19884;BME280;10104;50.732;10.174;2022-07-01T11:00:50;98120.72;;;20.02;74.30
19884;BME280;10104;50.732;10.174;2022-07-01T11:03:15;98114.22;;;20.15;71.87
19884;BME280;10104;50.732;10.174;2022-07-01T11:05:37;98109.00;;;20.08;73.27
19884;BME280;10104;50.732;10.174;2022-07-01T11:07:59;98108.69;;;20.22;71.55
19884;BME280;10104;50.732;10.174;2022-07-01T11:10:20;98104.22;;;20.27;72.27
19884;BME280;10104;50.732;10.174;2022-07-01T11:12:43;98098.81;;;20.27;73.41
19884;BME280;10104;50.732;10.174;2022-07-01T11:15:06;98101.53;;;20.10;69.85
19884;BME280;10104;50.732;10.174;2022-07-01T11:17:28;98088.56;;;20.07;70.53
19884;BME280;10104;50.732;10.174;2022-07-01T11:19:56;98089.22;;;20.14;67.38
19884;BME280;10104;50.732;10.174;2022-07-01T11:22:27;98089.22;;;19.98;70.66
19884;BME280;10104;50.732;10.174;2022-07-01T11:24:53;98091.09;;;19.97;70.07
19884;BME280;10104;50.732;10.174;2022-07-01T11:27:15;98107.22;;;19.97;69.86
19884;BME280;10104;50.732;10.174;2022-07-01T11:29:37;98117.22;;;20.02;69.71
19884;BME280;10104;50.732;10.174;2022-07-01T11:31:59;98116.25;;;19.91;67.51
19884;BME280;10104;50.732;10.174;2022-07-01T11:34:22;98109.59;;;20.10;69.65
19884;BME280;10104;50.732;10.174;2022-07-01T11:36:45;98112.19;;;20.22;67.79
19884;BME280;10104;50.732;10.174;2022-07-01T11:39:25;98123.03;;;20.27;65.80
19884;BME280;10104;50.732;10.174;2022-07-01T11:42:15;98129.44;;;20.54;65.10
19884;BME280;10104;50.732;10.174;2022-07-01T11:44:41;98134.22;;;20.69;65.96
19884;BME280;10104;50.732;10.174;2022-07-01T11:47:05;98127.53;;;20.72;65.96
19884;BME280;10104;50.732;10.174;2022-07-01T11:49:27;98127.94;;;20.64;67.40
19884;BME280;10104;50.732;10.174;2022-07-01T11:52:00;98123.38;;;20.64;65.14
19884;BME280;10104;50.732;10.174;2022-07-01T11:54:23;98124.53;;;20.51;66.67
19884;BME280;10104;50.732;10.174;2022-07-01T11:56:45;98119.53;;;20.43;65.39
19884;BME280;10104;50.732;10.174;2022-07-01T11:59:07;98126.47;;;20.39;66.44
19884;BME280;10104;50.732;10.174;2022-07-01T12:01:31;98123.22;;;20.37;65.52
19884;BME280;10104;50.732;10.174;2022-07-01T12:03:54;98132.75;;;20.28;66.22
19884;BME280;10104;50.732;10.174;2022-07-01T12:06:19;98134.19;;;20.19;65.50
19884;BME280;10104;50.732;10.174;2022-07-01T12:08:41;98141.84;;;20.10;71.24
19884;BME280;10104;50.732;10.174;2022-07-01T12:11:04;98149.88;;;20.39;68.91
19884;BME280;10104;50.732;10.174;2022-07-01T12:13:26;98156.50;;;20.48;67.75
19884;BME280;10104;50.732;10.174;2022-07-01T12:15:48;98157.28;;;20.65;66.04
19884;BME280;10104;50.732;10.174;2022-07-01T12:18:10;98162.53;;;20.55;67.75
19884;BME280;10104;50.732;10.174;2022-07-01T12:20:32;98173.53;;;20.53;66.51
19884;BME280;10104;50.732;10.174;2022-07-01T12:23:10;98168.31;;;20.47;69.19
19884;BME280;10104;50.732;10.174;2022-07-01T12:25:32;98168.75;;;20.27;66.33
19884;BME280;10104;50.732;10.174;2022-07-01T12:27:53;98162.03;;;19.96;67.26
19884;BME280;10104;50.732;10.174;2022-07-01T12:30:23;98174.41;;;19.69;67.71
19884;BME280;10104;50.732;10.174;2022-07-01T12:32:45;98163.91;;;19.67;70.62
19884;BME280;10104;50.732;10.174;2022-07-01T12:35:08;98156.00;;;19.61;69.26